Time;durP1;ratioP1;P1;durP2;ratioP2;P2;SDS_P1;SDS_P2;PMS_P1;PMS_P2;Temp;Humidity;BMP_temperature;BMP_pressure;BME280_temperature;BME280_humidity;BME280_pressure;Samples;Min_cycle;Max_cycle;Signal;HPM_P1;HPM_P2
2024/01/17 00:02:09;;;;;;;26.42;12.32;;;0.90;99.90;;;;;;5032127;28;20433;-74
2024/01/17 00:04:35;;;;;;;27.23;12.68;;;1.10;99.90;;;;;;5032180;28;20396;-75
2024/01/17 00:07:01;;;;;;;25.80;12.88;;;0.80;99.90;;;;;;5031937;28;20033;-76
2024/01/17 00:09:26;;;;;;;19.90;11.07;;;0.90;99.90;;;;;;5032495;28;20025;-77
2024/01/17 00:11:52;;;;;;;27.58;13.10;;;1.00;99.90;;;;;;5013827;28;20025;-74
2024/01/17 00:14:18;;;;;;;25.20;12.32;;;1.00;99.90;;;;;;5031856;28;20017;-75
2024/01/17 00:16:44;;;;;;;26.30;13.30;;;0.90;99.90;;;;;;5032009;28;20025;-74
2024/01/17 00:19:10;;;;;;;28.95;13.15;;;1.10;99.90;;;;;;5031784;28;20030;-74
2024/01/17 00:21:36;;;;;;;25.60;13.52;;;0.90;99.90;;;;;;5013767;28;20045;-72
2024/01/17 00:24:01;;;;;;;25.95;13.43;;;0.80;99.90;;;;;;5031715;28;20389;-74
2024/01/17 00:26:27;;;;;;;25.60;13.10;;;0.80;99.90;;;;;;5032054;28;20029;-74
2024/01/17 00:28:54;;;;;;;27.65;13.80;;;0.80;99.90;;;;;;5036945;28;20509;-74
2024/01/17 00:31:36;;;;;;;25.50;12.57;;;0.80;99.90;;;;;;5112607;27;20894;-74
2024/01/17 00:34:01;;;;;;;27.95;13.15;;;0.80;99.90;;;;;;5105923;28;20028;-74
2024/01/17 00:36:27;;;;;;;25.95;12.68;;;0.80;99.90;;;;;;5078828;28;20381;-74
2024/01/17 00:38:53;;;;;;;29.98;13.10;;;0.70;99.90;;;;;;5085745;28;20439;-75
2024/01/17 00:41:19;;;;;;;25.63;13.25;;;0.70;99.90;;;;;;5087779;28;20465;-74
2024/01/17 00:43:45;;;;;;;33.22;16.13;;;0.60;99.90;;;;;;5085452;28;20397;-74
2024/01/17 00:46:11;;;;;;;25.15;13.23;;;0.80;99.90;;;;;;5086158;28;20028;-74
2024/01/17 00:48:36;;;;;;;29.40;14.15;;;0.70;99.90;;;;;;5105946;28;20038;-73
2024/01/17 00:51:02;;;;;;;25.75;12.73;;;0.70;99.90;;;;;;5087552;28;20043;-75
2024/01/17 00:53:29;;;;;;;28.13;14.10;;;0.60;99.90;;;;;;5106516;28;20019;-75
2024/01/17 00:55:55;;;;;;;27.05;12.88;;;0.70;99.90;;;;;;5106196;28;20110;-75
2024/01/17 00:58:21;;;;;;;31.65;16.45;;;0.60;99.90;;;;;;5105403;28;20492;-75
2024/01/17 01:00:47;;;;;;;24.25;12.95;;;0.80;99.90;;;;;;5105700;28;20059;-76
2024/01/17 01:03:13;;;;;;;36.40;15.50;;;0.70;99.90;;;;;;5083685;28;20026;-75
2024/01/17 01:05:39;;;;;;;30.27;14.75;;;0.60;99.90;;;;;;5106469;28;20062;-75
2024/01/17 01:08:05;;;;;;;30.00;14.68;;;0.80;99.90;;;;;;5105348;28;20086;-76
2024/01/17 01:10:31;;;;;;;26.77;14.27;;;0.70;99.90;;;;;;5105896;28;20065;-77
2024/01/17 01:12:57;;;;;;;26.17;12.50;;;0.80;99.90;;;;;;5087670;28;20583;-76
2024/01/17 01:15:22;;;;;;;24.23;12.85;;;0.80;99.90;;;;;;5106174;28;20066;-76
2024/01/17 01:17:48;;;;;;;27.67;13.98;;;0.80;99.90;;;;;;5088045;28;20538;-76
2024/01/17 01:20:14;;;;;;;25.70;14.15;;;0.70;99.90;;;;;;5106221;28;20421;-76
2024/01/17 01:22:40;;;;;;;24.27;13.30;;;0.80;99.90;;;;;;5106255;28;20027;-77
2024/01/17 01:25:06;;;;;;;28.45;14.30;;;0.90;99.90;;;;;;5088256;28;20515;-77
2024/01/17 01:27:32;;;;;;;30.77;14.20;;;0.80;99.90;;;;;;5105920;28;20089;-77
2024/01/17 01:29:58;;;;;;;25.40;12.07;;;0.80;99.90;;;;;;5091235;28;20048;-77
2024/01/17 01:32:24;;;;;;;27.63;12.98;;;0.90;99.90;;;;;;5106182;28;20350;-77
2024/01/17 01:34:50;;;;;;;27.08;13.35;;;0.90;99.90;;;;;;5105024;28;20092;-77
2024/01/17 01:37:15;;;;;;;28.60;14.60;;;1.10;99.90;;;;;;5104596;28;20131;-77
2024/01/17 01:39:41;;;;;;;23.95;13.27;;;1.00;99.90;;;;;;5106118;28;20472;-77
2024/01/17 01:42:07;;;;;;;25.85;13.35;;;1.00;99.90;;;;;;5095527;28;20496;-77
2024/01/17 01:44:33;;;;;;;24.58;12.85;;;1.00;99.90;;;;;;5092339;28;20024;-77
2024/01/17 01:46:59;;;;;;;23.95;13.88;;;1.00;99.90;;;;;;5092424;28;20043;-77
2024/01/17 01:49:25;;;;;;;29.73;14.95;;;0.90;99.90;;;;;;5092527;28;20095;-76
2024/01/17 01:51:53;;;;;;;32.88;13.70;;;0.90;99.90;;;;;;5090935;28;20228;-77
2024/01/17 01:54:21;;;;;;;27.08;15.15;;;0.80;99.90;;;;;;5090864;28;20426;-77
2024/01/17 01:56:47;;;;;;;22.38;12.85;;;0.80;99.90;;;;;;5091667;28;20032;-77
2024/01/17 01:59:16;;;;;;;23.88;12.93;;;0.80;99.90;;;;;;5090755;28;20040;-76
2024/01/17 02:01:43;;;;;;;24.38;12.77;;;1.10;99.90;;;;;;5092012;28;20122;-76
2024/01/17 02:04:09;;;;;;;25.60;13.25;;;1.00;99.90;;;;;;5090426;28;20074;-76
2024/01/17 02:06:38;;;;;;;28.73;14.65;;;1.00;99.90;;;;;;5092092;28;20111;-77
2024/01/17 02:09:04;;;;;;;24.67;13.68;;;0.90;99.90;;;;;;5090723;28;20024;-77
2024/01/17 02:11:30;;;;;;;26.25;13.75;;;0.90;99.90;;;;;;5090092;28;20538;-76
2024/01/17 02:13:57;;;;;;;27.05;13.52;;;1.00;99.90;;;;;;5090405;28;20085;-76
2024/01/17 02:16:26;;;;;;;29.15;14.13;;;0.80;99.90;;;;;;5091941;28;20282;-77
2024/01/17 02:18:52;;;;;;;30.52;14.05;;;0.70;99.90;;;;;;5091839;28;20016;-76
2024/01/17 02:21:18;;;;;;;28.08;13.55;;;0.80;99.90;;;;;;5090374;28;20133;-77
2024/01/17 02:23:49;;;;;;;25.58;13.40;;;0.90;99.90;;;;;;5090436;28;20158;-76
2024/01/17 02:26:14;;;;;;;28.23;13.70;;;0.80;99.90;;;;;;5090031;28;20090;-77
2024/01/17 02:28:40;;;;;;;26.90;13.73;;;0.80;99.90;;;;;;5087290;28;20465;-76
2024/01/17 02:31:06;;;;;;;29.70;13.95;;;1.00;99.90;;;;;;5054517;28;20572;-77
2024/01/17 02:33:33;;;;;;;26.73;14.10;;;0.70;99.90;;;;;;5031203;28;20025;-76
2024/01/17 02:35:58;;;;;;;27.73;13.13;;;0.70;99.90;;;;;;5050191;28;20445;-76
2024/01/17 02:38:24;;;;;;;32.50;13.85;;;0.70;99.90;;;;;;5051225;28;20052;-76
2024/01/17 02:40:50;;;;;;;32.25;13.65;;;0.80;99.90;;;;;;5050798;28;20436;-76
2024/01/17 02:43:15;;;;;;;27.67;13.65;;;0.70;99.90;;;;;;5050606;28;20056;-76
2024/01/17 02:45:41;;;;;;;31.95;15.10;;;0.60;99.90;;;;;;5031775;28;20086;-76
2024/01/17 02:48:07;;;;;;;26.00;13.32;;;0.90;99.90;;;;;;5049666;28;20370;-77
2024/01/17 02:50:33;;;;;;;26.63;13.88;;;0.70;99.90;;;;;;5049400;28;20485;-77
2024/01/17 02:52:58;;;;;;;27.30;14.38;;;0.60;99.90;;;;;;5030514;28;20074;-76
2024/01/17 02:55:24;;;;;;;30.45;14.27;;;1.00;99.90;;;;;;5031512;28;20029;-76
2024/01/17 02:57:51;;;;;;;33.95;16.10;;;0.70;99.90;;;;;;5032598;28;20295;-76
2024/01/17 03:00:17;;;;;;;29.48;14.88;;;0.60;99.90;;;;;;5050904;28;20108;-76
2024/01/17 03:02:44;;;;;;;25.90;13.57;;;0.70;99.90;;;;;;5032850;28;20029;-77
2024/01/17 03:05:10;;;;;;;29.52;13.93;;;0.80;99.90;;;;;;5032996;28;20017;-77
2024/01/17 03:07:36;;;;;;;31.40;14.65;;;0.80;99.90;;;;;;5032804;28;20396;-76
2024/01/17 03:10:02;;;;;;;28.48;14.07;;;0.90;99.90;;;;;;5032385;28;20033;-76
2024/01/17 03:12:28;;;;;;;31.67;14.23;;;0.90;99.90;;;;;;5032199;28;20029;-76
2024/01/17 03:14:53;;;;;;;30.83;13.85;;;0.80;99.90;;;;;;5032898;28;20035;-76
2024/01/17 03:17:19;;;;;;;28.35;13.00;;;0.80;99.90;;;;;;5050522;28;20021;-76
2024/01/17 03:19:46;;;;;;;28.13;13.52;;;0.70;99.90;;;;;;5032919;28;20542;-76
2024/01/17 03:22:14;;;;;;;33.22;14.18;;;0.80;99.90;;;;;;5032915;28;20175;-76
2024/01/17 03:24:41;;;;;;;30.33;15.13;;;0.80;99.90;;;;;;5032640;28;20032;-77
2024/01/17 03:27:06;;;;;;;27.17;14.07;;;0.80;99.90;;;;;;5032187;28;20117;-76
2024/01/17 03:29:32;;;;;;;22.83;12.30;;;0.90;99.90;;;;;;5031975;28;20127;-77
2024/01/17 03:31:58;;;;;;;24.88;12.40;;;0.80;99.90;;;;;;5032392;28;20024;-75
2024/01/17 03:34:24;;;;;;;29.38;14.25;;;0.90;99.90;;;;;;5050182;28;20025;-77
2024/01/17 03:36:50;;;;;;;23.45;13.20;;;1.10;99.90;;;;;;5032191;28;20035;-77
2024/01/17 03:39:15;;;;;;;25.52;12.52;;;1.10;99.90;;;;;;5050138;28;20054;-77
2024/01/17 03:41:41;;;;;;;28.58;13.77;;;0.90;99.90;;;;;;5031875;28;20032;-77
2024/01/17 03:44:07;;;;;;;26.98;12.65;;;1.00;99.90;;;;;;5032162;28;20643;-77
2024/01/17 03:46:33;;;;;;;27.35;12.77;;;0.90;99.90;;;;;;5049970;28;20096;-76
2024/01/17 03:49:02;;;;;;;28.48;13.68;;;1.00;99.90;;;;;;5049597;28;20557;-75
2024/01/17 03:51:28;;;;;;;28.30;12.35;;;0.90;99.90;;;;;;5049912;28;20032;-77
2024/01/17 03:53:54;;;;;;;25.35;13.30;;;1.10;99.90;;;;;;5031960;28;20139;-76
2024/01/17 03:56:20;;;;;;;28.52;13.40;;;1.00;99.90;;;;;;5049755;28;20033;-77
2024/01/17 03:58:45;;;;;;;28.85;13.00;;;1.00;99.90;;;;;;5049839;28;20070;-76
2024/01/17 04:01:12;;;;;;;26.35;12.68;;;1.10;99.90;;;;;;5049758;28;20021;-77
2024/01/17 04:03:39;;;;;;;28.42;13.65;;;1.10;99.90;;;;;;5049761;28;20382;-76
2024/01/17 04:06:06;;;;;;;28.02;13.15;;;1.10;99.90;;;;;;5031314;28;20135;-77
2024/01/17 04:08:32;;;;;;;28.30;14.02;;;1.10;99.90;;;;;;5049585;28;20087;-76
2024/01/17 04:10:58;;;;;;;29.25;14.57;;;1.20;99.90;;;;;;5031808;28;20029;-76
2024/01/17 04:13:24;;;;;;;26.13;13.82;;;1.00;99.90;;;;;;5031478;28;20108;-76
2024/01/17 04:15:49;;;;;;;30.75;13.70;;;1.00;99.90;;;;;;5031723;28;20029;-76
2024/01/17 04:18:16;;;;;;;31.38;14.48;;;1.00;99.90;;;;;;5031997;28;20561;-77
2024/01/17 04:20:41;;;;;;;25.55;13.20;;;1.00;99.90;;;;;;5049926;28;20103;-77
2024/01/17 04:23:08;;;;;;;32.85;13.85;;;1.10;99.90;;;;;;5031651;28;20117;-77
2024/01/17 04:25:35;;;;;;;28.65;13.45;;;1.10;99.90;;;;;;5049382;28;20028;-77
2024/01/17 04:28:07;;;;;;;30.88;14.43;;;1.10;99.90;;;;;;5031351;28;20367;-75
2024/01/17 04:30:33;;;;;;;25.48;12.95;;;0.90;99.90;;;;;;5066344;28;20044;-77
2024/01/17 04:33:00;;;;;;;26.85;13.35;;;0.90;99.90;;;;;;5088814;28;20031;-77
2024/01/17 04:35:26;;;;;;;25.90;13.02;;;0.90;99.90;;;;;;5088207;28;20088;-77
2024/01/17 04:37:52;;;;;;;30.33;13.23;;;0.90;99.90;;;;;;5088227;28;20016;-76
2024/01/17 04:40:18;;;;;;;32.15;13.73;;;0.90;99.90;;;;;;5088227;28;20069;-77
2024/01/17 04:42:48;;;;;;;29.88;14.23;;;0.90;99.90;;;;;;5092037;28;20020;-76
2024/01/17 04:45:17;;;;;;;36.65;16.13;;;1.10;99.90;;;;;;5088925;28;20457;-75
2024/01/17 04:47:43;;;;;;;27.42;14.55;;;1.00;99.90;;;;;;5096319;28;20016;-76
2024/01/17 04:50:10;;;;;;;31.05;14.93;;;1.00;99.90;;;;;;5088332;28;20043;-77
2024/01/17 04:52:36;;;;;;;31.38;15.35;;;1.00;99.90;;;;;;5088784;28;20199;-76
2024/01/17 04:55:02;;;;;;;28.90;16.08;;;1.00;99.90;;;;;;5088186;28;20634;-76
2024/01/17 04:57:28;;;;;;;29.63;14.48;;;1.00;99.90;;;;;;5088526;28;20052;-76
2024/01/17 04:59:54;;;;;;;35.60;18.35;;;1.30;99.90;;;;;;5087701;28;20552;-76
2024/01/17 05:02:20;;;;;;;28.75;14.85;;;1.00;99.90;;;;;;5089098;28;20042;-76
2024/01/17 05:04:55;;;;;;;28.02;14.65;;;1.00;99.90;;;;;;5089360;28;20022;-75
2024/01/17 05:07:29;;;;;;;33.65;15.38;;;1.20;99.90;;;;;;5085836;28;20016;-76
2024/01/17 05:09:59;;;;;;;30.50;16.80;;;1.10;99.90;;;;;;5086677;28;20396;-75
2024/01/17 05:12:30;;;;;;;31.50;14.63;;;1.20;99.90;;;;;;5086083;28;20085;-75
2024/01/17 05:14:59;;;;;;;29.10;14.35;;;1.20;99.90;;;;;;5084697;28;20123;-75
2024/01/17 05:17:25;;;;;;;31.03;15.37;;;1.20;99.90;;;;;;5088454;28;20536;-76
2024/01/17 05:19:50;;;;;;;33.47;15.98;;;1.20;99.90;;;;;;5090169;28;20111;-75
2024/01/17 05:22:27;;;;;;;32.47;15.68;;;1.30;99.90;;;;;;5089503;28;20035;-75
2024/01/17 05:24:56;;;;;;;30.95;15.10;;;1.30;99.90;;;;;;5091489;28;20119;-75
2024/01/17 05:27:58;;;;;;;39.45;13.98;;;1.30;99.90;;;;;;5091040;28;20024;-76
2024/01/17 05:30:52;;;;;;;32.20;15.38;;;1.20;99.90;;;;;;5082180;28;20064;-75
2024/01/17 05:33:23;;;;;;;29.13;14.48;;;1.20;99.90;;;;;;5073006;28;20090;-75
2024/01/17 05:35:49;;;;;;;29.98;14.85;;;1.10;99.90;;;;;;5054173;28;20075;-75
2024/01/17 05:38:14;;;;;;;33.08;15.18;;;1.20;99.90;;;;;;5072621;28;20040;-75
2024/01/17 05:40:52;;;;;;;32.88;15.68;;;1.20;99.90;;;;;;5072436;28;20025;-75
2024/01/17 05:43:18;;;;;;;25.52;13.68;;;1.10;99.90;;;;;;5053859;28;20048;-76
2024/01/17 05:45:44;;;;;;;33.22;15.10;;;1.00;99.90;;;;;;5072386;28;20032;-75
2024/01/17 05:48:10;;;;;;;30.10;14.50;;;1.20;99.90;;;;;;5072064;28;20096;-75
2024/01/17 05:50:38;;;;;;;32.05;15.70;;;1.30;99.90;;;;;;5072051;28;20062;-76
2024/01/17 05:53:07;;;;;;;33.38;15.43;;;1.30;99.90;;;;;;5054578;28;20093;-75
2024/01/17 05:55:35;;;;;;;26.42;13.57;;;1.40;99.90;;;;;;5053979;28;20173;-75
2024/01/17 05:58:09;;;;;;;31.40;16.08;;;1.40;99.90;;;;;;5053635;28;20457;-75
2024/01/17 06:00:35;;;;;;;29.33;14.70;;;1.40;99.90;;;;;;5053916;28;20073;-75
2024/01/17 06:03:00;;;;;;;30.38;14.98;;;1.30;99.90;;;;;;5072210;28;20549;-75
2024/01/17 06:06:01;;;;;;;28.25;14.88;;;1.40;99.90;;;;;;5071770;28;20092;-75
2024/01/17 06:08:42;;;;;;;31.42;15.07;;;1.30;99.90;;;;;;5047936;28;20032;-75
2024/01/17 06:11:46;;;;;;;33.03;16.25;;;1.40;99.90;;;;;;5058655;28;20033;-74
2024/01/17 06:14:28;;;;;;;27.30;14.80;;;1.30;99.90;;;;;;4982048;28;20276;-75
2024/01/17 06:16:57;;;;;;;31.48;14.68;;;1.40;99.90;;;;;;5058167;28;20034;-75
2024/01/17 06:19:22;;;;;;;34.57;16.27;;;1.40;99.90;;;;;;5052875;28;20121;-75
2024/01/17 06:21:48;;;;;;;32.78;15.70;;;1.50;99.90;;;;;;5070861;28;20099;-74
2024/01/17 06:24:14;;;;;;;36.75;15.85;;;1.50;99.90;;;;;;5070627;28;20141;-75
2024/01/17 06:26:40;;;;;;;32.63;14.05;;;1.50;99.90;;;;;;5070039;28;20018;-76
2024/01/17 06:29:06;;;;;;;29.48;14.23;;;1.50;99.90;;;;;;5044421;28;20552;-77
2024/01/17 06:31:32;;;;;;;33.50;15.80;;;1.40;99.90;;;;;;5069277;28;20139;-76
2024/01/17 06:33:57;;;;;;;29.40;14.18;;;1.20;99.90;;;;;;5070051;28;20025;-75
2024/01/17 06:36:26;;;;;;;30.15;14.57;;;1.50;99.90;;;;;;5071356;28;20031;-76
2024/01/17 06:38:55;;;;;;;30.02;14.82;;;1.30;99.90;;;;;;5069851;28;20065;-75
2024/01/17 06:41:24;;;;;;;31.30;16.40;;;1.30;99.90;;;;;;5070828;28;20033;-76
2024/01/17 06:44:09;;;;;;;32.08;15.98;;;1.40;99.90;;;;;;5071202;28;20056;-76
2024/01/17 06:46:35;;;;;;;31.33;15.40;;;1.40;99.90;;;;;;5069809;28;20025;-75
2024/01/17 06:49:04;;;;;;;36.15;15.95;;;1.40;99.90;;;;;;5069968;28;20044;-75
2024/01/17 06:51:30;;;;;;;28.50;14.18;;;1.40;99.90;;;;;;5071140;28;20095;-74
2024/01/17 06:53:59;;;;;;;35.08;15.38;;;1.30;99.90;;;;;;5070992;28;20039;-75
2024/01/17 06:56:25;;;;;;;31.20;16.35;;;1.40;99.90;;;;;;5069160;28;20020;-75
2024/01/17 06:58:51;;;;;;;30.30;14.90;;;1.80;99.90;;;;;;5070681;28;20025;-75
2024/01/17 07:01:17;;;;;;;29.00;13.82;;;1.90;99.90;;;;;;5069512;28;20103;-74
2024/01/17 07:03:43;;;;;;;30.73;14.27;;;1.60;99.90;;;;;;5069500;28;20099;-75
2024/01/17 07:06:10;;;;;;;34.38;14.63;;;1.40;99.90;;;;;;5083352;28;20031;-76
2024/01/17 07:08:36;;;;;;;29.88;14.23;;;1.00;99.90;;;;;;5091107;28;20022;-75
2024/01/17 07:11:02;;;;;;;31.05;15.77;;;0.80;99.90;;;;;;5090201;28;20040;-74
2024/01/17 07:13:27;;;;;;;31.42;15.45;;;0.80;99.90;;;;;;5089415;28;20504;-75
2024/01/17 07:15:53;;;;;;;32.55;15.00;;;0.70;99.90;;;;;;5091224;28;20489;-75
2024/01/17 07:18:19;;;;;;;28.35;14.63;;;0.80;99.90;;;;;;5090683;28;20488;-74
2024/01/17 07:20:44;;;;;;;33.47;14.85;;;0.80;99.90;;;;;;5090678;28;20035;-75
2024/01/17 07:23:12;;;;;;;32.05;14.52;;;0.80;99.90;;;;;;5090671;28;20538;-75
2024/01/17 07:25:38;;;;;;;30.13;15.15;;;0.70;99.90;;;;;;5090729;28;20055;-75
2024/01/17 07:28:05;;;;;;;32.03;15.57;;;0.80;99.90;;;;;;5090094;28;20487;-75
2024/01/17 07:30:30;;;;;;;38.75;17.35;;;0.80;99.90;;;;;;5079030;28;20045;-76
2024/01/17 07:32:57;;;;;;;33.97;16.27;;;0.80;99.90;;;;;;5070057;28;20029;-76
2024/01/17 07:35:22;;;;;;;31.83;15.27;;;0.80;99.90;;;;;;5051970;28;20115;-75
2024/01/17 07:37:50;;;;;;;29.48;14.70;;;0.90;99.90;;;;;;5052066;28;20119;-75
2024/01/17 07:40:17;;;;;;;30.02;14.85;;;0.90;99.90;;;;;;5069572;28;20039;-76
2024/01/17 07:42:43;;;;;;;35.55;15.60;;;0.80;99.90;;;;;;5051883;28;20024;-75
2024/01/17 07:45:10;;;;;;;30.98;14.48;;;0.90;99.90;;;;;;5052040;28;20139;-76
2024/01/17 07:47:36;;;;;;;51.47;20.80;;;0.90;99.90;;;;;;5069961;28;20028;-75
2024/01/17 07:50:02;;;;;;;36.45;16.63;;;0.80;99.90;;;;;;5051786;28;20106;-76
2024/01/17 07:52:28;;;;;;;34.17;16.08;;;0.90;99.90;;;;;;5051735;28;20027;-76
2024/01/17 07:54:53;;;;;;;28.73;13.75;;;0.90;99.90;;;;;;5069770;28;20029;-75
2024/01/17 07:57:19;;;;;;;30.67;16.08;;;0.80;99.90;;;;;;5069530;28;20029;-74
2024/01/17 07:59:45;;;;;;;27.58;12.95;;;0.90;99.90;;;;;;5051702;28;20024;-74
2024/01/17 08:02:10;;;;;;;65.90;24.20;;;0.80;99.90;;;;;;5069860;28;20024;-76
2024/01/17 08:04:36;;;;;;;31.00;15.57;;;0.90;99.90;;;;;;5070011;28;20155;-75
2024/01/17 08:07:03;;;;;;;29.35;14.63;;;0.90;99.90;;;;;;5049757;28;20545;-76
2024/01/17 08:09:28;;;;;;;55.75;24.33;;;0.90;99.90;;;;;;5049457;28;20017;-75
2024/01/17 08:11:56;;;;;;;32.38;14.95;;;1.00;99.90;;;;;;5049216;28;20428;-75
2024/01/17 08:14:23;;;;;;;25.85;13.70;;;1.00;99.90;;;;;;5049364;28;20067;-75
2024/01/17 08:16:53;;;;;;;35.45;16.17;;;1.10;99.90;;;;;;5049486;28;20024;-74
2024/01/17 08:19:19;;;;;;;29.40;15.10;;;1.10;99.90;;;;;;5049636;28;20021;-74
2024/01/17 08:21:46;;;;;;;28.45;13.68;;;1.00;99.90;;;;;;5031332;28;20021;-75
2024/01/17 08:24:12;;;;;;;27.42;15.32;;;0.50;99.90;;;;;;5049368;28;20021;-74
2024/01/17 08:26:42;;;;;;;31.25;15.25;;;1.00;99.90;;;;;;5049134;28;20076;-75
2024/01/17 08:29:08;;;;;;;30.58;14.05;;;1.00;99.90;;;;;;5031452;28;20032;-75
2024/01/17 08:31:34;;;;;;;32.95;15.15;;;1.20;99.90;;;;;;5049093;28;20092;-74
2024/01/17 08:34:00;;;;;;;38.58;17.27;;;1.20;99.90;;;;;;5049406;28;20492;-75
2024/01/17 08:36:30;;;;;;;33.03;15.85;;;1.30;99.90;;;;;;5049431;28;20028;-76
2024/01/17 08:39:06;;;;;;;27.08;14.82;;;1.30;99.90;;;;;;5070408;28;20033;-76
2024/01/17 08:41:33;;;;;;;26.23;13.27;;;1.20;99.90;;;;;;5050725;28;20021;-75
2024/01/17 08:44:00;;;;;;;27.95;13.65;;;1.50;99.90;;;;;;5037015;28;20052;-75
2024/01/17 08:46:25;;;;;;;27.38;12.85;;;1.50;99.90;;;;;;5049710;28;20021;-76
2024/01/17 08:48:51;;;;;;;29.98;14.43;;;1.20;99.90;;;;;;5050528;28;20421;-74
2024/01/17 08:51:17;;;;;;;30.92;14.68;;;1.40;99.90;;;;;;5053100;28;20474;-75
2024/01/17 08:53:43;;;;;;;40.83;19.27;;;1.30;99.90;;;;;;5063329;28;20075;-74
2024/01/17 08:56:10;;;;;;;27.75;13.65;;;1.40;99.90;;;;;;5063938;28;20017;-75
2024/01/17 08:59:03;;;;;;;28.75;13.02;;;1.50;99.90;;;;;;5063028;28;20021;-76
2024/01/17 09:01:46;;;;;;;24.13;11.73;;;1.30;99.90;;;;;;5063680;28;20147;-75
2024/01/17 09:04:43;;;;;;;30.75;14.38;;;1.40;99.90;;;;;;5061658;28;20036;-75
2024/01/17 09:07:42;;;;;;;27.73;12.82;;;1.50;99.90;;;;;;5059098;28;20128;-75
2024/01/17 09:10:13;;;;;;;23.05;12.25;;;1.60;99.90;;;;;;5038710;28;20124;-75
2024/01/17 09:12:39;;;;;;;26.95;13.65;;;1.70;99.90;;;;;;5037797;28;20029;-73
2024/01/17 09:15:34;;;;;;;25.73;11.65;;;1.60;99.90;;;;;;5052512;28;20025;-75
2024/01/17 09:18:17;;;;;;;25.23;12.45;;;1.50;99.90;;;;;;5052777;28;20098;-75
2024/01/17 09:20:50;;;;;;;24.85;12.63;;;1.60;99.90;;;;;;5057937;28;20044;-76
2024/01/17 09:23:16;;;;;;;24.77;12.02;;;1.60;99.90;;;;;;5062109;28;20066;-76
2024/01/17 09:26:19;;;;;;;23.52;12.43;;;1.70;99.90;;;;;;5063684;28;20008;-75
2024/01/17 09:28:48;;;;;;;22.35;10.98;;;1.70;99.90;;;;;;5004138;28;20040;-76
2024/01/17 09:31:14;;;;;;;18.00;10.10;;;1.60;99.90;;;;;;5052711;28;20045;-75
2024/01/17 09:33:39;;;;;;;21.38;9.98;;;1.60;99.90;;;;;;5043929;28;20029;-75
2024/01/17 09:36:06;;;;;;;19.58;9.63;;;1.60;99.90;;;;;;5047189;28;20033;-75
2024/01/17 09:38:35;;;;;;;21.00;11.23;;;1.50;99.90;;;;;;5068794;28;20453;-76
2024/01/17 09:41:10;;;;;;;26.85;11.40;;;1.60;99.90;;;;;;5043049;28;20028;-74
2024/01/17 09:43:36;;;;;;;32.92;14.35;;;1.70;99.90;;;;;;5074643;28;20146;-75
2024/01/17 09:46:02;;;;;;;20.40;11.20;;;1.80;99.90;;;;;;5064850;28;20032;-75
2024/01/17 09:48:31;;;;;;;20.60;10.38;;;1.90;99.90;;;;;;5065191;28;20039;-75
2024/01/17 09:51:03;;;;;;;21.45;11.05;;;1.90;99.90;;;;;;5050531;28;20032;-75
2024/01/17 09:53:59;;;;;;;19.48;10.20;;;1.90;99.90;;;;;;5059542;28;20070;-74
2024/01/17 09:56:31;;;;;;;17.67;10.00;;;2.00;99.90;;;;;;5060464;28;20309;-76
2024/01/17 09:59:27;;;;;;;20.27;10.20;;;2.10;99.90;;;;;;5074612;28;20039;-75
2024/01/17 10:02:14;;;;;;;23.77;12.65;;;2.10;99.90;;;;;;5050035;28;20031;-76
2024/01/17 10:04:42;;;;;;;26.35;12.68;;;2.00;99.90;;;;;;5062063;28;20025;-76
2024/01/17 10:07:09;;;;;;;21.63;11.02;;;2.10;99.90;;;;;;5069009;28;20021;-75
2024/01/17 10:09:41;;;;;;;26.60;13.05;;;2.20;99.90;;;;;;5047442;28;20607;-75
2024/01/17 10:15:41;;;;;;;20.63;11.15;;;2.50;99.90;;;;;;5052976;28;20041;-76
2024/01/17 10:18:36;;;;;;;35.55;14.93;;;2.60;99.90;;;;;;5049270;28;20185;-75
2024/01/17 10:22:20;;;;;;;24.73;12.15;;;2.60;99.90;;;;;;5072140;28;20355;-76
2024/01/17 10:25:08;;;;;;;;;;;;;;;;;;;;;
2024/01/17 10:32:07;;;;;;;23.13;10.68;;;2.80;99.90;;;;;;5062311;28;20054;-75
2024/01/17 10:34:36;;;;;;;22.17;10.87;;;3.10;99.90;;;;;;5057428;28;20120;-76
2024/01/17 10:37:04;;;;;;;17.45;9.02;;;3.30;99.90;;;;;;5080695;28;20020;-76
2024/01/17 10:39:30;;;;;;;17.10;9.38;;;3.40;99.90;;;;;;5080163;28;20213;-75
2024/01/17 10:41:59;;;;;;;20.17;9.85;;;3.50;99.90;;;;;;5078357;28;20025;-76
2024/01/17 10:44:25;;;;;;;;;;;3.50;99.90;;;;;;5080901;28;20056;-76
2024/01/17 10:47:23;;;;;;;19.83;9.63;;;3.30;99.90;;;;;;5080715;28;19905;-75
2024/01/17 10:53:48;;;;;;;28.17;11.30;;;3.40;99.90;;;;;;5056049;28;20033;-75
2024/01/17 10:56:21;;;;;;;48.75;20.02;;;3.80;99.90;;;;;;5074163;28;20427;-77
2024/01/17 11:02:55;;;;;;;16.30;8.80;;;3.70;99.90;;;;;;4949315;29;20023;-76
2024/01/17 11:05:25;;;;;;;22.23;10.38;;;3.60;99.90;;;;;;4964014;28;20056;-76
2024/01/17 11:11:04;;;;;;;18.20;9.73;;;3.80;99.90;;;;;;5040955;28;20621;-76
2024/01/17 11:13:30;;;;;;;18.40;9.75;;;3.90;99.90;;;;;;5087045;28;20039;-75
2024/01/17 11:16:12;;;;;;;;;;;;;;;;;;;;;
2024/01/17 11:18:41;;;;;;;18.80;10.60;;;3.80;99.90;;;;;;5089766;28;20016;-75
2024/01/17 11:21:07;;;;;;;21.63;12.38;;;3.80;99.90;;;;;;5097721;28;20103;-75
2024/01/17 11:24:12;;;;;;;34.42;20.20;;;3.70;99.90;;;;;;5100574;28;20028;-75
2024/01/17 11:27:15;;;;;;;35.35;18.92;;;3.70;99.90;;;;;;5098278;28;20045;-74
2024/01/17 11:29:51;;;;;;;34.70;19.55;;;3.80;99.90;;;;;;5097296;28;20379;-74
2024/01/17 11:33:02;;;;;;;43.45;19.45;;;3.90;99.90;;;;;;5080546;28;20028;-74
2024/01/17 11:35:45;;;;;;;33.10;15.32;;;3.80;99.90;;;;;;5062718;28;20037;-74
2024/01/17 11:38:21;;;;;;;34.97;17.35;;;3.90;99.90;;;;;;5080164;28;20062;-74
2024/01/17 11:40:46;;;;;;;32.65;18.05;;;4.00;99.90;;;;;;5078979;28;20023;-75
2024/01/17 11:43:15;;;;;;;35.38;17.38;;;4.10;99.90;;;;;;5079987;28;20221;-74
2024/01/17 11:45:41;;;;;;;41.93;20.80;;;4.20;99.90;;;;;;5061719;28;20024;-74
2024/01/17 11:48:19;;;;;;;32.83;13.40;;;4.20;99.90;;;;;;5079359;28;20020;-74
2024/01/17 11:51:02;;;;;;;19.30;8.35;;;4.80;99.90;;;;;;5079489;28;20063;-75
2024/01/17 11:53:28;;;;;;;11.20;5.78;;;5.60;99.90;;;;;;5078577;28;20066;-75
2024/01/17 11:56:00;;;;;;;20.02;9.68;;;6.20;99.90;;;;;;5077433;28;20115;-74
2024/01/17 11:58:41;;;;;;;20.80;11.90;;;7.30;99.90;;;;;;5076641;28;20031;-74
2024/01/17 12:01:14;;;;;;;21.05;12.27;;;7.50;99.90;;;;;;5042313;28;20319;-74
2024/01/17 12:03:42;;;;;;;14.30;8.02;;;7.60;99.90;;;;;;5042067;28;20033;-74
2024/01/17 12:06:09;;;;;;;16.58;7.90;;;7.30;99.90;;;;;;5072662;28;20020;-74
2024/01/17 12:08:41;;;;;;;20.27;8.73;;;6.80;99.90;;;;;;5080091;28;20258;-73
2024/01/17 12:11:19;;;;;;;21.58;9.82;;;6.40;99.90;;;;;;5072027;28;20051;-77
2024/01/17 12:13:52;;;;;;;15.10;8.60;;;6.30;99.90;;;;;;5060785;28;20339;-76
2024/01/17 12:16:21;;;;;;;13.60;7.40;;;6.30;99.90;;;;;;5059030;28;20017;-74
2024/01/17 12:18:59;;;;;;;8.60;5.03;;;6.60;99.90;;;;;;5056612;28;20024;-73
2024/01/17 12:21:25;;;;;;;5.20;2.95;;;7.90;99.90;;;;;;5057004;28;20025;-73
2024/01/17 12:23:51;;;;;;;5.53;3.38;;;8.10;99.90;;;;;;5049023;28;20103;-72
2024/01/17 12:26:16;;;;;;;11.98;6.03;;;8.50;99.90;;;;;;5048591;28;20104;-74
2024/01/17 12:28:42;;;;;;;4.63;1.50;;;8.30;99.90;;;;;;5049057;28;20096;-73
2024/01/17 12:31:08;;;;;;;0.85;0.73;;;9.00;99.90;;;;;;5048529;28;20147;-75
2024/01/17 12:33:36;;;;;;;3.00;1.65;;;10.20;99.90;;;;;;5049043;28;20024;-75
2024/01/17 12:36:04;;;;;;;12.57;4.13;;;11.20;99.90;;;;;;5048811;28;20397;-74
2024/01/17 12:38:31;;;;;;;4.88;1.30;;;11.90;99.90;;;;;;5048900;28;20021;-74
2024/01/17 12:40:58;;;;;;;1.95;0.95;;;12.10;99.90;;;;;;5030647;28;20037;-73
2024/01/17 12:43:26;;;;;;;9.52;2.83;;;12.30;99.90;;;;;;5048846;28;20028;-74
2024/01/17 12:45:53;;;;;;;1.58;1.23;;;12.30;99.90;;;;;;5048979;28;20029;-73
2024/01/17 12:48:19;;;;;;;1.70;0.98;;;12.40;99.90;;;;;;5048571;28;20086;-73
2024/01/17 12:50:49;;;;;;;3.40;0.70;;;12.50;99.90;;;;;;5049016;28;20096;-73
2024/01/17 12:53:21;;;;;;;1.23;0.90;;;12.50;99.90;;;;;;5054513;28;20423;-75
2024/01/17 12:55:47;;;;;;;0.93;0.60;;;12.40;99.90;;;;;;5068513;28;20427;-73
2024/01/17 12:58:14;;;;;;;2.92;1.15;;;12.40;99.90;;;;;;5067351;28;20029;-72
2024/01/17 13:00:40;;;;;;;1.05;0.77;;;12.40;99.90;;;;;;5048844;28;20478;-73
2024/01/17 13:03:10;;;;;;;3.22;0.93;;;12.30;99.90;;;;;;5048755;28;20148;-75
2024/01/17 13:05:40;;;;;;;0.85;0.85;;;12.40;99.90;;;;;;5056663;28;20028;-73
2024/01/17 13:08:11;;;;;;;3.13;1.23;;;12.40;99.90;;;;;;5067388;28;20023;-76
2024/01/17 13:10:38;;;;;;;1.48;0.80;;;12.40;99.90;;;;;;5074612;28;20542;-78
2024/01/17 13:13:05;;;;;;;1.77;0.63;;;12.60;99.90;;;;;;5058357;28;20028;-84